Carriel Sur Airport
SCIE : now visible

Airfield :











YOU CAN JOIN US ON...

 
LOGIN :

Register | Disclaimer

   EN    FR    IT 

 









Legend :    VFR   Marginal VFR   IFR   Intensive IFR   Very Intensive IFR
Visi :
Ceiling :
>= 8 km
>= 3000ft
5 to 8 km
1000 to 3000 ft
1500m to 5 km
500 to 1000 ft
800 to 1500m
200 to 500 ft
< 800m
< 200 ft
Symbols :   Thunderstorms  Fog  Heavy snow  Heavy precipitations  Wind > 20 kt






- Airport Elevation : 26 ft
- IATA code : CCP


SCIE - Carriel Sur

CURRENT METAR :
  • 021300Z 20011KT CAVOK 17/07 Q1017

EXPIRED METARs :
  • 021200Z 21006KT CAVOK 12/07 Q1017
  • 021100Z 21008KT CAVOK 10/06 Q1017

TAF TAF SCIE
Valid from the 02 at 00:00 until the 03 at 00:00 UTC


012210Z 0200/0224 24015KT CAVOK TX25/0218Z TN11/0211Z
BECMG 0201/0203 21008KT
TEMPO 0206/0213 15004KT
BECMG 0215/0217 22013KT



MET'MAP, your aeronautical weather chart ! - Copyright ORBIFLY December 2007 - Disclaimer

ORBIFLY MET'MAP TEAM :

Programming & Development : Alexandra Zaïnal
Concept & original design : Baudouin d'Aumeries
Assistance for programming : Marc-Olivier Méhu
Technical & hardware support : Manuel Goepfert

Contact : metmap@orbifly.com




SOURCES & CREDITS :

   NOAA       Earth
Advisory